Terminal Aerodrome Forecast
Issued by NWS Sterling, VA

Home | Current Version | Previous Version | Text Only | Print | Product List | Glossary On
Versions: 1 2 3 4 5 6 7 8 9 10 11 12 13 14 15 16 17 18 19 20 21 22
000
FTUS41 KLWX 222000 AAA
TAFBWI
TAF AMD
KBWI 222038Z 2221/2324 00000KT 2SM -RA BR BKN012 OVC045
     FM230900 35005KT 3SM -RA BR OVC003
     FM231100 00000KT 3SM -DZ BR OVC003
     FM231500 00000KT 3SM -DZ BR OVC008
     FM232300 00000KT P6SM OVC008=

USA.gov is the U.S. government's official web portal to all federal, state and local government web resources and services.